• Join FlightAware (Why Join?)
  • Login
  • US Flag 
11:07PM EDT


 

Airport Tracker/Info


-or-


 

Live Flight TrackerFlight Track Log ✈ N884FT ✈ 11-Sep-2013 ✈ KFXE - KMLB

Flight Track Log - Related Links

Times and Time Zones

All times are in EDT time to prevent confusion due to time zone crossing. See the N884FT flight status page for this flight to view local times or setup timezone preferences in your user account.

Time Position Orientation Groundspeed Altitude Reporting Facility
EDT Latitude Longitude Course Direction KTS MPH feet Rate Location/Type
10:41AM 26.2061 -80.1564 43° Northeast 105 121 1,100  Level Miami Center
10:43AM 26.2715 -80.1519 North  Level FlightAware Approximate
10:50AM 26.5543 -80.1115 13° North  Level FlightAware Approximate
10:51AM 26.5942 -80.1015 13° North  Level FlightAware Approximate
10:52AM 26.6342 -80.0915 13° North  Level FlightAware Approximate
10:53AM 26.6740 -80.0859 343° North  Level FlightAware Approximate
10:54AM 26.7130 -80.0996 343° North  Level FlightAware Approximate
10:55AM 26.7520 -80.1134 343° North  Level FlightAware Approximate
10:56AM 26.7911 -80.1272 343° North  Level FlightAware Approximate
10:57AM 26.8301 -80.1410 343° North  Level FlightAware Approximate
10:58AM 26.8692 -80.1547 343° North  Level FlightAware Approximate
10:59AM 26.9082 -80.1685 343° North  Level FlightAware Approximate
11:00AM 26.9472 -80.1824 343° North  Level FlightAware Approximate
11:01AM 26.9852 -80.1993 338° Northwest  Level FlightAware Approximate
11:01AM 26.8819 -80.4525 343° North 155 178 5,000  Level Miami Center
11:02AM 27.0232 -80.2166 338° Northwest  Level FlightAware Approximate
11:02AM 26.9264 -80.4283 26° Northeast 155 178 5,000  Level Miami Center
11:03AM 27.0611 -80.2338 338° Northwest  Level FlightAware Approximate
11:03AM 26.9583 -80.4036 35° Northeast 150 173 5,000  Level Miami Center
11:04AM 27.0991 -80.2511 338° Northwest  Level FlightAware Approximate
11:04AM 26.9944 -80.3767 34° Northeast 150 173 5,000  Level Miami Center
11:05AM 27.1371 -80.2679 343° North  Level FlightAware Approximate
11:05AM 27.0283 -80.3639 19° North 175 201 5,000  Level Miami Center
11:06AM 27.0683 -80.3439 24° Northeast 159 183 5,100  Climbing Miami Center
11:07AM 27.1106 -80.3289 18° North 154 177 5,100  Level Miami Center
11:08AM 27.1525 -80.3161 15° North 154 177 5,100  Level Miami Center
11:09AM 27.1881 -80.3150 North 141 162 5,100  Level Miami Center
11:10AM 27.2319 -80.3186 356° North 141 162 5,100  Level Miami Center
11:11AM 27.2775 -80.3317 346° North 146 168 5,100  Level Miami Center
11:12AM 27.3189 -80.3492 339° North 152 175 5,100  Level Miami Center
11:13AM 27.3622 -80.3644 343° North 152 175 5,100  Level Miami Center
11:14AM 27.3994 -80.3819 337° Northwest 152 175 5,100  Level Miami Center
11:15AM 27.4278 -80.4228 308° West 152 175 5,100  Level Miami Center
11:16AM 27.4622 -80.4658 312° West 167 192 5,100 -180 Level Miami Center
11:17AM 27.4967 -80.5067 314° West 167 192 4,800 -420 Descending Miami Center
11:18AM 27.5269 -80.5428 313° West 172 198 4,300 -540 Descending Miami Center
11:19AM 27.5594 -80.5861 310° West 177 204 3,800 -600 Descending Miami Center
11:20AM 27.5936 -80.6339 309° West 182 209 3,200 -420 Descending Miami Center
11:21AM 27.6239 -80.6750 310° West 182 209 3,000 -60 Descending Miami Center
11:22AM 27.6539 -80.7158 310° West 182 209 3,100  Climbing Miami Center
11:23AM 27.6803 -80.7517 310° West 182 209 3,000 -60 Descending Miami Center
11:25AM 27.7833 -80.7833 345° North 150 173 3,000  Level Orlando TRACON
11:26AM 27.8333 -80.8000 344° North 149 171 3,000  Level Orlando TRACON
11:27AM 27.8500 -80.8167 319° Northwest 138 159 3,100  Climbing Orlando TRACON
11:28AM 27.9000 -80.8333 344° North 147 169 3,000 -60 Descending Orlando TRACON
11:29AM 27.9333 -80.8500 336° Northwest 145 167 3,000  Level Orlando TRACON
11:30AM 27.9833 -80.8667 344° North 143 165 3,000  Level Orlando TRACON
11:31AM 28.0167 -80.8667 360° North 145 167 3,000  Level Orlando TRACON
11:32AM 28.0500 -80.8833 336° Northwest 117 135 3,000  Level Orlando TRACON
11:33AM 28.0833 -80.8833 360° North 100 115 3,000 -240 Level Orlando TRACON
11:34AM 28.0833 -80.8667 90° East 107 123 2,600 -540 Descending Orlando TRACON
11:35AM 28.1000 -80.8333 60° Northeast 100 115 2,000 -600 Descending Orlando TRACON
11:36AM 28.1000 -80.8167 90° East 93 107 1,600 -300 Descending Orlando TRACON
11:37AM 28.1000 -80.7833 90° East 84 97 1,400 -120 Descending Orlando TRACON
11:38AM 28.1000 -80.7500 90° East 84 97 1,400 -60 Level Orlando TRACON
11:39AM 28.1000 -80.7333 90° East 88 101 1,300 -300 Descending Orlando TRACON
11:40AM 28.1000 -80.7000 90° East 93 107 800 -540 Descending Orlando TRACON
11:41AM 28.1000 -80.6833 90° East 86 99 300 -540 Descending Orlando TRACON